Time;durP1;ratioP1;P1;durP2;ratioP2;P2;SDS_P1;SDS_P2;PMS_P1;PMS_P2;Temp;Humidity;BMP_temperature;BMP_pressure;BME280_temperature;BME280_humidity;BME280_pressure;Samples;Min_cycle;Max_cycle;Signal;HPM_P1;HPM_P2
2022/07/12 00:01:08;;;;;;;;;;;16.60;99.90;;;;;;10499288;27;84284;-52
2022/07/12 00:06:09;;;;;;;;;;;16.60;99.90;;;;;;10536834;27;84174;-49
2022/07/12 00:11:09;;;;;;;;;;;16.50;99.90;;;;;;10452536;27;84292;-48
2022/07/12 00:16:11;;;;;;;;;;;16.50;99.90;;;;;;10466560;27;86072;-47
2022/07/12 00:21:11;;;;;;;;;;;16.40;99.90;;;;;;10492568;27;85140;-52
2022/07/12 00:26:12;;;;;;;;;;;16.40;99.90;;;;;;10493646;27;85192;-51
2022/07/12 00:31:12;;;;;;;;;;;16.30;99.90;;;;;;10451761;27;84207;-51
2022/07/12 00:36:13;;;;;;;;;;;16.20;99.90;;;;;;10433458;28;86745;-45
2022/07/12 00:41:14;;;;;;;;;;;16.20;99.90;;;;;;10491811;27;85627;-47
2022/07/12 00:46:17;;;;;;;;;;;16.10;99.90;;;;;;10493982;27;84894;-45
2022/07/12 00:51:18;;;;;;;;;;;16.10;99.90;;;;;;10491488;27;84952;-47
2022/07/12 00:56:19;;;;;;;;;;;16.00;99.90;;;;;;10473271;27;87279;-46
2022/07/12 01:01:20;;;;;;;;;;;16.00;99.90;;;;;;10533450;27;84029;-48
2022/07/12 01:06:21;;;;;;;;;;;15.90;99.90;;;;;;10515175;27;86737;-49
2022/07/12 01:11:22;;;;;;;;;;;15.80;99.90;;;;;;10493079;27;84116;-47
2022/07/12 01:16:23;;;;;;;;;;;15.80;99.90;;;;;;10491430;27;85675;-47
2022/07/12 01:21:26;;;;;;;;;;;15.80;99.90;;;;;;10507502;27;85060;-49
2022/07/12 01:26:27;;;;;;;;;;;15.70;99.90;;;;;;10533730;27;84135;-50
2022/07/12 01:31:27;;;;;;;;;;;15.70;99.90;;;;;;10515425;27;84819;-47
2022/07/12 01:36:28;;;;;;;;;;;15.60;99.90;;;;;;10490037;27;84879;-45
2022/07/12 01:41:30;;;;;;;;;;;15.60;99.90;;;;;;10507567;27;84985;-48
2022/07/12 01:46:31;;;;;;;;;;;15.60;99.90;;;;;;10533721;27;84863;-49
2022/07/12 01:51:31;;;;;;;;;;;15.50;99.90;;;;;;10514751;27;84933;-50
2022/07/12 01:56:32;;;;;;;;;;;15.50;99.90;;;;;;10491281;27;85057;-46
2022/07/12 02:01:33;;;;;;;;;;;15.40;99.90;;;;;;10508014;27;84885;-47
2022/07/12 02:06:34;;;;;;;;;;;15.40;99.90;;;;;;10532733;27;84903;-48
2022/07/12 02:11:34;;;;;;;;;;;15.30;99.90;;;;;;10514741;27;84106;-48
2022/07/12 02:16:35;;;;;;;;;;;15.30;99.90;;;;;;10490808;27;85024;-48
2022/07/12 02:21:36;;;;;;;;;;;15.20;99.90;;;;;;10506744;27;84923;-49
2022/07/12 02:26:37;;;;;;;;;;;15.20;99.90;;;;;;10513347;27;84117;-48
2022/07/12 02:31:37;;;;;;;;;;;15.20;99.90;;;;;;10512073;27;85085;-47
2022/07/12 02:36:38;;;;;;;;;;;15.20;99.90;;;;;;10476258;27;85240;-46
2022/07/12 02:41:38;;;;;;;;;;;15.20;99.90;;;;;;10505637;27;84207;-50
2022/07/12 02:46:39;;;;;;;;;;;15.20;99.90;;;;;;10481108;27;84204;-48
2022/07/12 02:51:40;;;;;;;;;;;15.10;99.90;;;;;;10512574;27;84860;-48
2022/07/12 02:56:40;;;;;;;;;;;15.10;99.90;;;;;;10509914;27;84813;-48
2022/07/12 03:01:41;;;;;;;;;;;15.10;99.90;;;;;;10490559;27;85339;-45
2022/07/12 03:06:41;;;;;;;;;;;15.10;99.90;;;;;;10519230;27;86952;-48
2022/07/12 03:11:42;;;;;;;;;;;15.10;99.90;;;;;;10536313;27;84813;-46
2022/07/12 03:16:42;;;;;;;;;;;15.10;99.90;;;;;;10518246;27;86088;-52
2022/07/12 03:21:43;;;;;;;;;;;15.10;99.90;;;;;;10517031;27;85115;-48
2022/07/12 03:26:43;;;;;;;;;;;15.00;99.90;;;;;;10494897;27;84799;-46
2022/07/12 03:31:44;;;;;;;;;;;15.10;99.90;;;;;;10514186;27;84256;-46
2022/07/12 03:36:44;;;;;;;;;;;15.00;99.90;;;;;;10517933;27;87317;-47
2022/07/12 03:41:45;;;;;;;;;;;15.00;99.90;;;;;;10516267;27;84831;-47
2022/07/12 03:46:47;;;;;;;;;;;15.00;99.90;;;;;;10494281;27;84895;-51
2022/07/12 03:51:47;;;;;;;;;;;15.00;99.90;;;;;;10513030;27;84153;-50
2022/07/12 04:02:07;;;;;;;;;;;15.10;99.90;;;;;;10498860;27;84820;-49
2022/07/12 04:07:08;;;;;;;;;;;15.10;99.90;;;;;;10492811;27;84180;-49
2022/07/12 04:12:08;;;;;;;;;;;15.00;99.90;;;;;;10516977;27;84730;-47
2022/07/12 04:17:09;;;;;;;;;;;15.10;99.90;;;;;;10513426;27;84904;-48
2022/07/12 04:22:09;;;;;;;;;;;15.10;99.90;;;;;;10493540;27;84390;-49
2022/07/12 04:27:10;;;;;;;;;;;15.20;99.90;;;;;;10496060;27;84058;-51
2022/07/12 04:32:11;;;;;;;;;;;15.20;99.90;;;;;;10513306;27;84090;-51
2022/07/12 04:37:11;;;;;;;;;;;15.30;99.90;;;;;;10512055;27;84125;-46
2022/07/12 04:42:12;;;;;;;;;;;15.40;99.90;;;;;;10510950;27;84298;-51
2022/07/12 04:47:12;;;;;;;;;;;15.60;99.90;;;;;;10513009;27;84085;-41
2022/07/12 04:52:13;;;;;;;;;;;15.70;99.90;;;;;;10519861;22;84860;-52
2022/07/12 04:57:13;;;;;;;;;;;15.70;99.90;;;;;;10477862;27;84913;-46
2022/07/12 05:02:14;;;;;;;;;;;15.70;99.90;;;;;;10477136;27;84927;-50
